Terminal Aerodrome Forecast
Issued by NWS Cleveland, OH

Home | Current Version | Previous Version | Text Only | Print | Product List | Glossary Off
Versions: 1 2 3 4 5 6 7 8 9 10 11 12 13 14 15 16 17 18 19 20

000
FTUS41 KCLE 142200 AAA
TAFERI
TAF AMD
KERI 142202Z 1422/1518 25012G20KT 6SM -RA SCT004 OVC015
      TEMPO 1422/1424 3SM -RA BR OVC004
     FM150100 25012KT P6SM SCT025 OVC035
     FM150700 36012KT 3SM -RA BR SCT008 OVC015
     FM151000 34015G25KT 1 1/2SM -SN BR OVC008
     FM151700 31015G25KT 4SM -SHSN SCT008 OVC015=

USA.gov is the U.S. government's official web portal to all federal, state and local government web resources and services.